sensor_id;sensor_type;location;lat;lon;timestamp;P1;durP1;ratioP1;P2;durP2;ratioP2
18507;SDS011;9383;50.928;12.116;2022-10-01T00:01:16;5.88;;;5.30;;
18507;SDS011;9383;50.928;12.116;2022-10-01T00:03:45;7.35;;;5.00;;
18507;SDS011;9383;50.928;12.116;2022-10-01T00:06:19;5.40;;;4.95;;
18507;SDS011;9383;50.928;12.116;2022-10-01T00:08:47;5.80;;;5.30;;
18507;SDS011;9383;50.928;12.116;2022-10-01T00:11:17;5.60;;;5.00;;
18507;SDS011;9383;50.928;12.116;2022-10-01T00:13:46;5.10;;;4.60;;
18507;SDS011;9383;50.928;12.116;2022-10-01T00:16:18;7.95;;;5.15;;
18507;SDS011;9383;50.928;12.116;2022-10-01T00:18:48;5.25;;;4.85;;
18507;SDS011;9383;50.928;12.116;2022-10-01T00:21:17;5.35;;;4.85;;
18507;SDS011;9383;50.928;12.116;2022-10-01T00:23:55;6.07;;;5.10;;
18507;SDS011;9383;50.928;12.116;2022-10-01T00:26:26;6.13;;;5.53;;
18507;SDS011;9383;50.928;12.116;2022-10-01T00:28:57;7.05;;;5.28;;
18507;SDS011;9383;50.928;12.116;2022-10-01T00:31:30;6.78;;;5.80;;
18507;SDS011;9383;50.928;12.116;2022-10-01T00:33:58;5.45;;;4.93;;
18507;SDS011;9383;50.928;12.116;2022-10-01T00:36:27;6.03;;;5.43;;
18507;SDS011;9383;50.928;12.116;2022-10-01T00:38:55;5.47;;;5.07;;
18507;SDS011;9383;50.928;12.116;2022-10-01T00:41:29;7.22;;;5.18;;
18507;SDS011;9383;50.928;12.116;2022-10-01T00:43:59;6.03;;;5.00;;
18507;SDS011;9383;50.928;12.116;2022-10-01T00:46:35;6.38;;;5.20;;
18507;SDS011;9383;50.928;12.116;2022-10-01T00:49:15;5.50;;;5.00;;
18507;SDS011;9383;50.928;12.116;2022-10-01T00:51:48;5.28;;;4.78;;
18507;SDS011;9383;50.928;12.116;2022-10-01T00:54:22;5.82;;;5.15;;
18507;SDS011;9383;50.928;12.116;2022-10-01T00:57:06;6.97;;;5.25;;
18507;SDS011;9383;50.928;12.116;2022-10-01T00:59:35;5.82;;;5.32;;
18507;SDS011;9383;50.928;12.116;2022-10-01T01:02:01;5.57;;;5.07;;
18507;SDS011;9383;50.928;12.116;2022-10-01T01:04:28;6.18;;;5.65;;
18507;SDS011;9383;50.928;12.116;2022-10-01T01:06:56;5.80;;;5.30;;
18507;SDS011;9383;50.928;12.116;2022-10-01T01:09:26;5.45;;;4.95;;
18507;SDS011;9383;50.928;12.116;2022-10-01T01:15:14;5.70;;;5.20;;
18507;SDS011;9383;50.928;12.116;2022-10-01T01:21:05;5.80;;;5.30;;
18507;SDS011;9383;50.928;12.116;2022-10-01T01:29:32;6.47;;;5.20;;
18507;SDS011;9383;50.928;12.116;2022-10-01T01:32:13;6.20;;;5.00;;
18507;SDS011;9383;50.928;12.116;2022-10-01T01:34:49;5.55;;;5.05;;
18507;SDS011;9383;50.928;12.116;2022-10-01T01:37:19;5.53;;;5.13;;
18507;SDS011;9383;50.928;12.116;2022-10-01T01:39:52;5.93;;;5.32;;
18507;SDS011;9383;50.928;12.116;2022-10-01T01:42:25;7.57;;;4.90;;
18507;SDS011;9383;50.928;12.116;2022-10-01T01:45:01;6.15;;;5.50;;
18507;SDS011;9383;50.928;12.116;2022-10-01T01:47:33;7.68;;;5.13;;
18507;SDS011;9383;50.928;12.116;2022-10-01T01:50:04;6.20;;;5.28;;
18507;SDS011;9383;50.928;12.116;2022-10-01T01:52:32;5.72;;;4.97;;
18507;SDS011;9383;50.928;12.116;2022-10-01T01:54:59;5.65;;;5.03;;
18507;SDS011;9383;50.928;12.116;2022-10-01T01:57:38;7.10;;;5.65;;
18507;SDS011;9383;50.928;12.116;2022-10-01T02:00:08;6.72;;;5.53;;
18507;SDS011;9383;50.928;12.116;2022-10-01T02:02:38;6.40;;;5.80;;
18507;SDS011;9383;50.928;12.116;2022-10-01T02:05:12;7.80;;;5.90;;
18507;SDS011;9383;50.928;12.116;2022-10-01T02:13:54;8.15;;;6.45;;
18507;SDS011;9383;50.928;12.116;2022-10-01T02:16:57;6.18;;;5.68;;
18507;SDS011;9383;50.928;12.116;2022-10-01T02:19:43;7.03;;;5.82;;
18507;SDS011;9383;50.928;12.116;2022-10-01T02:22:46;6.30;;;5.70;;
18507;SDS011;9383;50.928;12.116;2022-10-01T02:25:22;7.00;;;5.72;;
18507;SDS011;9383;50.928;12.116;2022-10-01T02:27:59;6.10;;;5.50;;
18507;SDS011;9383;50.928;12.116;2022-10-01T02:30:33;5.88;;;5.35;;
18507;SDS011;9383;50.928;12.116;2022-10-01T02:33:04;6.70;;;5.57;;
18507;SDS011;9383;50.928;12.116;2022-10-01T02:35:35;6.25;;;5.65;;
18507;SDS011;9383;50.928;12.116;2022-10-01T02:38:03;6.60;;;5.95;;
18507;SDS011;9383;50.928;12.116;2022-10-01T02:40:34;11.40;;;6.25;;
18507;SDS011;9383;50.928;12.116;2022-10-01T02:43:12;6.05;;;5.47;;
18507;SDS011;9383;50.928;12.116;2022-10-01T02:45:46;7.30;;;6.00;;
18507;SDS011;9383;50.928;12.116;2022-10-01T02:48:20;6.07;;;5.57;;
18507;SDS011;9383;50.928;12.116;2022-10-01T02:50:50;5.95;;;5.30;;
18507;SDS011;9383;50.928;12.116;2022-10-01T02:54:00;5.97;;;5.38;;
18507;SDS011;9383;50.928;12.116;2022-10-01T02:56:35;5.90;;;5.40;;
18507;SDS011;9383;50.928;12.116;2022-10-01T02:59:21;7.20;;;5.10;;
18507;SDS011;9383;50.928;12.116;2022-10-01T03:01:48;6.50;;;5.95;;
18507;SDS011;9383;50.928;12.116;2022-10-01T03:04:14;6.30;;;5.70;;
18507;SDS011;9383;50.928;12.116;2022-10-01T03:06:41;7.03;;;6.32;;
18507;SDS011;9383;50.928;12.116;2022-10-01T03:09:08;6.75;;;5.90;;
18507;SDS011;9383;50.928;12.116;2022-10-01T03:11:34;6.18;;;5.68;;
18507;SDS011;9383;50.928;12.116;2022-10-01T03:14:01;7.75;;;6.95;;
18507;SDS011;9383;50.928;12.116;2022-10-01T03:16:28;8.20;;;7.32;;
18507;SDS011;9383;50.928;12.116;2022-10-01T03:18:55;7.60;;;6.40;;
18507;SDS011;9383;50.928;12.116;2022-10-01T03:21:21;7.35;;;6.55;;
18507;SDS011;9383;50.928;12.116;2022-10-01T03:23:47;7.88;;;7.15;;
18507;SDS011;9383;50.928;12.116;2022-10-01T03:26:13;6.57;;;5.97;;
18507;SDS011;9383;50.928;12.116;2022-10-01T03:28:39;6.70;;;6.07;;
18507;SDS011;9383;50.928;12.116;2022-10-01T03:31:06;6.68;;;5.97;;
18507;SDS011;9383;50.928;12.116;2022-10-01T03:33:34;7.15;;;6.50;;
18507;SDS011;9383;50.928;12.116;2022-10-01T03:36:01;7.32;;;6.63;;
18507;SDS011;9383;50.928;12.116;2022-10-01T03:38:30;8.00;;;6.78;;
18507;SDS011;9383;50.928;12.116;2022-10-01T03:40:56;8.55;;;7.68;;
18507;SDS011;9383;50.928;12.116;2022-10-01T03:43:23;8.82;;;6.70;;
18507;SDS011;9383;50.928;12.116;2022-10-01T03:45:51;8.40;;;7.60;;
18507;SDS011;9383;50.928;12.116;2022-10-01T03:48:17;7.75;;;7.05;;
18507;SDS011;9383;50.928;12.116;2022-10-01T03:50:51;8.30;;;7.43;;
18507;SDS011;9383;50.928;12.116;2022-10-01T03:53:23;7.03;;;6.32;;
18507;SDS011;9383;50.928;12.116;2022-10-01T03:55:51;8.18;;;7.38;;
18507;SDS011;9383;50.928;12.116;2022-10-01T03:58:19;8.25;;;7.40;;
18507;SDS011;9383;50.928;12.116;2022-10-01T04:00:45;8.00;;;7.30;;
18507;SDS011;9383;50.928;12.116;2022-10-01T04:03:13;8.35;;;7.53;;
18507;SDS011;9383;50.928;12.116;2022-10-01T04:05:41;9.70;;;8.32;;
18507;SDS011;9383;50.928;12.116;2022-10-01T04:08:09;11.02;;;8.18;;
18507;SDS011;9383;50.928;12.116;2022-10-01T04:10:36;7.65;;;6.95;;
18507;SDS011;9383;50.928;12.116;2022-10-01T04:13:03;9.15;;;8.27;;
18507;SDS011;9383;50.928;12.116;2022-10-01T04:15:30;9.32;;;8.13;;
18507;SDS011;9383;50.928;12.116;2022-10-01T04:18:00;9.05;;;8.07;;
18507;SDS011;9383;50.928;12.116;2022-10-01T04:20:30;8.52;;;7.63;;
18507;SDS011;9383;50.928;12.116;2022-10-01T04:23:00;8.57;;;7.72;;
18507;SDS011;9383;50.928;12.116;2022-10-01T04:25:28;8.77;;;7.88;;
18507;SDS011;9383;50.928;12.116;2022-10-01T04:27:56;9.48;;;8.57;;
18507;SDS011;9383;50.928;12.116;2022-10-01T04:30:33;11.10;;;8.85;;
18507;SDS011;9383;50.928;12.116;2022-10-01T04:33:02;9.38;;;8.48;;
18507;SDS011;9383;50.928;12.116;2022-10-01T04:35:29;9.10;;;8.20;;
18507;SDS011;9383;50.928;12.116;2022-10-01T04:37:56;9.68;;;8.57;;
18507;SDS011;9383;50.928;12.116;2022-10-01T04:40:31;8.80;;;8.00;;
18507;SDS011;9383;50.928;12.116;2022-10-01T04:43:00;9.82;;;8.75;;
18507;SDS011;9383;50.928;12.116;2022-10-01T04:45:28;9.77;;;8.10;;
18507;SDS011;9383;50.928;12.116;2022-10-01T04:48:04;9.30;;;8.38;;
18507;SDS011;9383;50.928;12.116;2022-10-01T04:50:31;10.55;;;9.65;;
18507;SDS011;9383;50.928;12.116;2022-10-01T04:53:17;9.38;;;8.48;;
18507;SDS011;9383;50.928;12.116;2022-10-01T04:55:44;10.35;;;8.93;;
18507;SDS011;9383;50.928;12.116;2022-10-01T04:58:11;11.35;;;9.90;;
18507;SDS011;9383;50.928;12.116;2022-10-01T05:00:37;10.52;;;9.43;;
18507;SDS011;9383;50.928;12.116;2022-10-01T05:03:04;10.43;;;8.82;;
18507;SDS011;9383;50.928;12.116;2022-10-01T05:05:30;9.88;;;8.88;;
18507;SDS011;9383;50.928;12.116;2022-10-01T05:07:59;9.95;;;8.95;;
18507;SDS011;9383;50.928;12.116;2022-10-01T05:10:25;10.57;;;9.43;;
18507;SDS011;9383;50.928;12.116;2022-10-01T05:12:52;9.48;;;8.50;;
18507;SDS011;9383;50.928;12.116;2022-10-01T05:15:19;11.18;;;9.75;;
18507;SDS011;9383;50.928;12.116;2022-10-01T05:17:45;10.73;;;9.68;;
18507;SDS011;9383;50.928;12.116;2022-10-01T05:20:16;10.18;;;9.18;;
18507;SDS011;9383;50.928;12.116;2022-10-01T05:22:45;13.32;;;10.50;;
18507;SDS011;9383;50.928;12.116;2022-10-01T05:25:14;10.73;;;9.63;;
18507;SDS011;9383;50.928;12.116;2022-10-01T05:27:41;10.60;;;9.32;;
18507;SDS011;9383;50.928;12.116;2022-10-01T05:30:08;10.48;;;9.48;;
18507;SDS011;9383;50.928;12.116;2022-10-01T05:32:37;10.77;;;9.20;;
18507;SDS011;9383;50.928;12.116;2022-10-01T05:35:04;12.20;;;10.40;;
18507;SDS011;9383;50.928;12.116;2022-10-01T05:37:33;11.45;;;10.30;;
18507;SDS011;9383;50.928;12.116;2022-10-01T05:39:59;10.60;;;9.55;;
18507;SDS011;9383;50.928;12.116;2022-10-01T05:42:26;11.38;;;10.25;;
18507;SDS011;9383;50.928;12.116;2022-10-01T05:44:52;11.45;;;10.25;;
18507;SDS011;9383;50.928;12.116;2022-10-01T05:47:18;12.30;;;10.88;;
18507;SDS011;9383;50.928;12.116;2022-10-01T05:49:45;12.00;;;9.65;;
18507;SDS011;9383;50.928;12.116;2022-10-01T05:52:13;11.57;;;10.38;;
18507;SDS011;9383;50.928;12.116;2022-10-01T05:54:40;11.57;;;10.38;;
18507;SDS011;9383;50.928;12.116;2022-10-01T05:57:08;12.20;;;10.88;;
18507;SDS011;9383;50.928;12.116;2022-10-01T05:59:35;11.55;;;10.35;;
18507;SDS011;9383;50.928;12.116;2022-10-01T06:02:01;12.13;;;10.82;;
18507;SDS011;9383;50.928;12.116;2022-10-01T06:04:28;12.10;;;10.90;;
18507;SDS011;9383;50.928;12.116;2022-10-01T06:06:55;12.23;;;10.75;;
18507;SDS011;9383;50.928;12.116;2022-10-01T06:09:22;11.38;;;10.27;;
18507;SDS011;9383;50.928;12.116;2022-10-01T06:11:48;11.32;;;10.13;;
18507;SDS011;9383;50.928;12.116;2022-10-01T06:14:15;11.52;;;10.38;;
18507;SDS011;9383;50.928;12.116;2022-10-01T06:16:42;11.23;;;9.75;;
18507;SDS011;9383;50.928;12.116;2022-10-01T06:19:08;11.57;;;10.38;;
18507;SDS011;9383;50.928;12.116;2022-10-01T06:21:34;11.05;;;9.98;;
18507;SDS011;9383;50.928;12.116;2022-10-01T06:24:01;11.98;;;10.05;;
18507;SDS011;9383;50.928;12.116;2022-10-01T06:26:27;10.20;;;9.18;;
18507;SDS011;9383;50.928;12.116;2022-10-01T06:28:53;11.25;;;9.45;;
18507;SDS011;9383;50.928;12.116;2022-10-01T06:31:19;10.88;;;9.70;;
18507;SDS011;9383;50.928;12.116;2022-10-01T06:33:46;10.98;;;9.88;;
18507;SDS011;9383;50.928;12.116;2022-10-01T06:36:12;11.43;;;9.88;;
18507;SDS011;9383;50.928;12.116;2022-10-01T06:38:38;11.65;;;10.52;;
18507;SDS011;9383;50.928;12.116;2022-10-01T06:41:04;11.20;;;9.98;;
18507;SDS011;9383;50.928;12.116;2022-10-01T06:43:32;10.98;;;9.88;;
18507;SDS011;9383;50.928;12.116;2022-10-01T06:45:59;11.05;;;9.95;;
18507;SDS011;9383;50.928;12.116;2022-10-01T06:48:27;10.80;;;9.68;;
18507;SDS011;9383;50.928;12.116;2022-10-01T06:50:56;12.15;;;9.98;;
18507;SDS011;9383;50.928;12.116;2022-10-01T06:53:23;11.07;;;10.00;;
18507;SDS011;9383;50.928;12.116;2022-10-01T06:55:52;10.60;;;9.48;;
18507;SDS011;9383;50.928;12.116;2022-10-01T06:58:19;11.90;;;10.40;;
18507;SDS011;9383;50.928;12.116;2022-10-01T07:00:48;10.15;;;8.93;;
18507;SDS011;9383;50.928;12.116;2022-10-01T07:03:16;10.60;;;9.57;;
18507;SDS011;9383;50.928;12.116;2022-10-01T07:05:49;11.15;;;9.98;;
18507;SDS011;9383;50.928;12.116;2022-10-01T07:08:15;12.27;;;11.07;;
18507;SDS011;9383;50.928;12.116;2022-10-01T07:10:42;11.25;;;10.13;;
18507;SDS011;9383;50.928;12.116;2022-10-01T07:13:11;10.43;;;9.43;;
18507;SDS011;9383;50.928;12.116;2022-10-01T07:15:39;11.32;;;10.13;;
18507;SDS011;9383;50.928;12.116;2022-10-01T07:18:06;12.57;;;10.00;;
18507;SDS011;9383;50.928;12.116;2022-10-01T07:20:35;12.10;;;10.88;;
18507;SDS011;9383;50.928;12.116;2022-10-01T07:23:04;11.48;;;10.18;;
18507;SDS011;9383;50.928;12.116;2022-10-01T07:25:41;11.93;;;10.73;;
18507;SDS011;9383;50.928;12.116;2022-10-01T07:28:16;13.82;;;10.43;;
18507;SDS011;9383;50.928;12.116;2022-10-01T07:30:45;12.82;;;10.38;;
18507;SDS011;9383;50.928;12.116;2022-10-01T07:33:31;11.88;;;10.27;;
18507;SDS011;9383;50.928;12.116;2022-10-01T07:36:01;11.15;;;10.05;;
18507;SDS011;9383;50.928;12.116;2022-10-01T07:38:31;11.80;;;10.60;;
18507;SDS011;9383;50.928;12.116;2022-10-01T07:41:01;10.40;;;9.40;;
18507;SDS011;9383;50.928;12.116;2022-10-01T07:43:29;11.52;;;10.32;;
18507;SDS011;9383;50.928;12.116;2022-10-01T07:45:57;10.98;;;9.52;;
18507;SDS011;9383;50.928;12.116;2022-10-01T07:48:24;13.02;;;10.07;;
18507;SDS011;9383;50.928;12.116;2022-10-01T07:50:53;10.05;;;9.05;;
18507;SDS011;9383;50.928;12.116;2022-10-01T07:53:19;10.60;;;9.60;;
18507;SDS011;9383;50.928;12.116;2022-10-01T07:55:49;9.98;;;8.93;;
18507;SDS011;9383;50.928;12.116;2022-10-01T07:58:15;9.65;;;8.50;;
18507;SDS011;9383;50.928;12.116;2022-10-01T08:00:42;9.68;;;8.32;;
18507;SDS011;9383;50.928;12.116;2022-10-01T08:03:09;8.93;;;8.10;;
18507;SDS011;9383;50.928;12.116;2022-10-01T08:05:39;9.68;;;8.77;;
18507;SDS011;9383;50.928;12.116;2022-10-01T08:08:07;10.27;;;8.85;;
18507;SDS011;9383;50.928;12.116;2022-10-01T08:10:35;11.45;;;8.65;;
18507;SDS011;9383;50.928;12.116;2022-10-01T08:13:06;10.07;;;8.05;;
18507;SDS011;9383;50.928;12.116;2022-10-01T08:15:43;9.32;;;8.23;;
18507;SDS011;9383;50.928;12.116;2022-10-01T08:18:11;8.55;;;7.65;;
18507;SDS011;9383;50.928;12.116;2022-10-01T08:20:38;9.02;;;8.13;;
18507;SDS011;9383;50.928;12.116;2022-10-01T08:23:06;8.27;;;7.47;;
18507;SDS011;9383;50.928;12.116;2022-10-01T08:25:35;6.55;;;5.95;;
18507;SDS011;9383;50.928;12.116;2022-10-01T08:28:02;7.53;;;6.75;;
18507;SDS011;9383;50.928;12.116;2022-10-01T08:30:30;7.47;;;6.78;;
18507;SDS011;9383;50.928;12.116;2022-10-01T08:32:58;7.18;;;6.28;;
18507;SDS011;9383;50.928;12.116;2022-10-01T08:35:26;7.00;;;6.30;;
18507;SDS011;9383;50.928;12.116;2022-10-01T08:37:53;6.32;;;5.72;;
18507;SDS011;9383;50.928;12.116;2022-10-01T08:40:21;6.00;;;5.50;;
18507;SDS011;9383;50.928;12.116;2022-10-01T08:42:56;7.15;;;5.65;;
18507;SDS011;9383;50.928;12.116;2022-10-01T08:45:46;5.80;;;4.90;;
18507;SDS011;9383;50.928;12.116;2022-10-01T08:54:19;6.05;;;4.57;;
18507;SDS011;9383;50.928;12.116;2022-10-01T08:57:11;4.05;;;3.67;;
18507;SDS011;9383;50.928;12.116;2022-10-01T08:59:44;3.65;;;3.15;;
18507;SDS011;9383;50.928;12.116;2022-10-01T09:02:24;3.00;;;2.70;;
18507;SDS011;9383;50.928;12.116;2022-10-01T09:18:52;2.40;;;2.28;;
18507;SDS011;9383;50.928;12.116;2022-10-01T09:21:56;8.68;;;7.85;;
18507;SDS011;9383;50.928;12.116;2022-10-01T09:24:44;3.95;;;3.60;;
18507;SDS011;9383;50.928;12.116;2022-10-01T09:27:26;2.25;;;2.03;;
18507;SDS011;9383;50.928;12.116;2022-10-01T09:29:55;4.18;;;2.38;;
18507;SDS011;9383;50.928;12.116;2022-10-01T09:32:44;3.33;;;2.30;;
18507;SDS011;9383;50.928;12.116;2022-10-01T09:38:22;10.50;;;7.75;;
18507;SDS011;9383;50.928;12.116;2022-10-01T09:41:03;3.03;;;2.03;;
18507;SDS011;9383;50.928;12.116;2022-10-01T09:43:31;3.00;;;1.92;;
18507;SDS011;9383;50.928;12.116;2022-10-01T09:45:59;43.40;;;33.05;;
18507;SDS011;9383;50.928;12.116;2022-10-01T09:48:54;3.15;;;2.00;;
18507;SDS011;9383;50.928;12.116;2022-10-01T09:51:39;4.63;;;1.90;;
18507;SDS011;9383;50.928;12.116;2022-10-01T09:57:05;2.70;;;2.50;;
18507;SDS011;9383;50.928;12.116;2022-10-01T09:59:44;3.13;;;2.00;;
18507;SDS011;9383;50.928;12.116;2022-10-01T10:05:20;2.28;;;2.08;;
18507;SDS011;9383;50.928;12.116;2022-10-01T10:10:28;2.28;;;2.08;;
18507;SDS011;9383;50.928;12.116;2022-10-01T10:13:13;2.13;;;1.88;;
18507;SDS011;9383;50.928;12.116;2022-10-01T10:16:19;1.77;;;1.67;;
18507;SDS011;9383;50.928;12.116;2022-10-01T10:19:21;2.10;;;1.90;;
18507;SDS011;9383;50.928;12.116;2022-10-01T10:21:55;2.15;;;1.98;;
18507;SDS011;9383;50.928;12.116;2022-10-01T10:24:34;2.35;;;1.73;;
18507;SDS011;9383;50.928;12.116;2022-10-01T10:27:03;2.22;;;2.13;;
18507;SDS011;9383;50.928;12.116;2022-10-01T10:29:44;2.63;;;2.03;;
18507;SDS011;9383;50.928;12.116;2022-10-01T10:32:20;2.17;;;2.08;;
18507;SDS011;9383;50.928;12.116;2022-10-01T10:34:51;2.00;;;1.90;;
18507;SDS011;9383;50.928;12.116;2022-10-01T10:37:29;2.83;;;2.60;;
18507;SDS011;9383;50.928;12.116;2022-10-01T10:40:02;1.70;;;1.60;;
18507;SDS011;9383;50.928;12.116;2022-10-01T10:42:33;2.45;;;2.30;;
18507;SDS011;9383;50.928;12.116;2022-10-01T10:45:02;2.83;;;2.20;;
18507;SDS011;9383;50.928;12.116;2022-10-01T10:47:44;2.25;;;2.05;;
18507;SDS011;9383;50.928;12.116;2022-10-01T10:50:35;2.15;;;2.03;;
18507;SDS011;9383;50.928;12.116;2022-10-01T10:55:57;2.00;;;1.90;;
18507;SDS011;9383;50.928;12.116;2022-10-01T10:58:28;1.70;;;1.60;;
18507;SDS011;9383;50.928;12.116;2022-10-01T11:00:59;1.85;;;1.73;;
18507;SDS011;9383;50.928;12.116;2022-10-01T11:03:45;1.90;;;1.80;;
18507;SDS011;9383;50.928;12.116;2022-10-01T11:06:17;1.42;;;1.33;;
18507;SDS011;9383;50.928;12.116;2022-10-01T11:08:45;1.98;;;1.50;;
18507;SDS011;9383;50.928;12.116;2022-10-01T11:17:46;1.60;;;1.50;;
18507;SDS011;9383;50.928;12.116;2022-10-01T11:31:43;1.20;;;1.20;;
18507;SDS011;9383;50.928;12.116;2022-10-01T11:35:03;1.30;;;1.20;;
18507;SDS011;9383;50.928;12.116;2022-10-01T11:37:47;4.53;;;1.30;;
18507;SDS011;9383;50.928;12.116;2022-10-01T11:40:39;1.30;;;1.20;;
18507;SDS011;9383;50.928;12.116;2022-10-01T11:43:31;1.27;;;1.23;;
18507;SDS011;9383;50.928;12.116;2022-10-01T11:46:08;1.17;;;1.17;;
18507;SDS011;9383;50.928;12.116;2022-10-01T11:48:43;1.60;;;1.50;;
18507;SDS011;9383;50.928;12.116;2022-10-01T11:51:21;1.35;;;1.25;;
18507;SDS011;9383;50.928;12.116;2022-10-01T11:53:59;1.52;;;1.42;;
18507;SDS011;9383;50.928;12.116;2022-10-01T11:56:33;1.58;;;1.48;;
18507;SDS011;9383;50.928;12.116;2022-10-01T12:04:46;1.40;;;1.30;;
18507;SDS011;9383;50.928;12.116;2022-10-01T12:12:37;1.40;;;1.30;;
18507;SDS011;9383;50.928;12.116;2022-10-01T12:15:25;1.85;;;0.90;;
18507;SDS011;9383;50.928;12.116;2022-10-01T12:18:46;2.25;;;1.00;;
18507;SDS011;9383;50.928;12.116;2022-10-01T12:21:32;1.15;;;1.15;;
18507;SDS011;9383;50.928;12.116;2022-10-01T12:24:13;1.67;;;1.20;;
18507;SDS011;9383;50.928;12.116;2022-10-01T12:32:36;1.35;;;1.25;;
18507;SDS011;9383;50.928;12.116;2022-10-01T12:44:44;0.65;;;0.65;;
18507;SDS011;9383;50.928;12.116;2022-10-01T12:50:37;0.98;;;0.95;;
18507;SDS011;9383;50.928;12.116;2022-10-01T12:56:42;2.50;;;1.35;;
18507;SDS011;9383;50.928;12.116;2022-10-01T13:02:44;0.70;;;0.70;;
18507;SDS011;9383;50.928;12.116;2022-10-01T13:08:13;0.45;;;0.45;;
18507;SDS011;9383;50.928;12.116;2022-10-01T13:11:02;0.75;;;0.75;;
18507;SDS011;9383;50.928;12.116;2022-10-01T13:13:55;0.68;;;0.68;;
18507;SDS011;9383;50.928;12.116;2022-10-01T13:22:18;2.78;;;2.58;;
18507;SDS011;9383;50.928;12.116;2022-10-01T13:25:31;1.40;;;1.08;;
18507;SDS011;9383;50.928;12.116;2022-10-01T13:31:53;1.00;;;0.88;;
18507;SDS011;9383;50.928;12.116;2022-10-01T13:37:16;0.57;;;0.57;;
18507;SDS011;9383;50.928;12.116;2022-10-01T13:39:57;0.73;;;0.47;;
18507;SDS011;9383;50.928;12.116;2022-10-01T13:42:25;0.77;;;0.77;;
18507;SDS011;9383;50.928;12.116;2022-10-01T13:45:04;0.70;;;0.70;;
18507;SDS011;9383;50.928;12.116;2022-10-01T13:47:45;1.35;;;1.25;;
18507;SDS011;9383;50.928;12.116;2022-10-01T13:50:19;0.80;;;0.80;;
18507;SDS011;9383;50.928;12.116;2022-10-01T13:52:51;0.73;;;0.73;;
18507;SDS011;9383;50.928;12.116;2022-10-01T13:55:43;0.85;;;0.70;;
18507;SDS011;9383;50.928;12.116;2022-10-01T13:58:32;0.70;;;0.70;;
18507;SDS011;9383;50.928;12.116;2022-10-01T14:00:59;0.73;;;0.73;;
18507;SDS011;9383;50.928;12.116;2022-10-01T14:03:38;1.10;;;1.10;;
18507;SDS011;9383;50.928;12.116;2022-10-01T14:06:20;0.70;;;0.70;;
18507;SDS011;9383;50.928;12.116;2022-10-01T14:09:13;0.68;;;0.68;;
18507;SDS011;9383;50.928;12.116;2022-10-01T14:11:44;1.73;;;1.00;;
18507;SDS011;9383;50.928;12.116;2022-10-01T14:14:34;1.63;;;0.73;;
18507;SDS011;9383;50.928;12.116;2022-10-01T14:17:28;0.70;;;0.70;;
18507;SDS011;9383;50.928;12.116;2022-10-01T14:19:58;0.43;;;0.43;;
18507;SDS011;9383;50.928;12.116;2022-10-01T14:28:47;1.02;;;0.80;;
18507;SDS011;9383;50.928;12.116;2022-10-01T14:34:49;1.00;;;0.90;;
18507;SDS011;9383;50.928;12.116;2022-10-01T14:37:44;0.55;;;0.55;;
18507;SDS011;9383;50.928;12.116;2022-10-01T14:40:13;1.40;;;1.30;;
18507;SDS011;9383;50.928;12.116;2022-10-01T14:42:59;0.73;;;0.73;;
18507;SDS011;9383;50.928;12.116;2022-10-01T14:45:35;5.72;;;4.07;;
18507;SDS011;9383;50.928;12.116;2022-10-01T14:48:03;3.28;;;2.60;;
18507;SDS011;9383;50.928;12.116;2022-10-01T14:50:32;1.30;;;1.00;;
18507;SDS011;9383;50.928;12.116;2022-10-01T14:53:02;0.80;;;0.80;;
18507;SDS011;9383;50.928;12.116;2022-10-01T14:55:29;4.47;;;3.22;;
18507;SDS011;9383;50.928;12.116;2022-10-01T14:57:59;1.45;;;1.35;;
18507;SDS011;9383;50.928;12.116;2022-10-01T15:00:29;1.05;;;0.60;;
18507;SDS011;9383;50.928;12.116;2022-10-01T15:05:38;1.15;;;1.00;;
18507;SDS011;9383;50.928;12.116;2022-10-01T15:08:11;1.33;;;0.90;;
18507;SDS011;9383;50.928;12.116;2022-10-01T15:10:39;0.63;;;0.60;;
18507;SDS011;9383;50.928;12.116;2022-10-01T15:13:16;1.05;;;0.70;;
18507;SDS011;9383;50.928;12.116;2022-10-01T15:15:47;0.57;;;0.57;;
18507;SDS011;9383;50.928;12.116;2022-10-01T15:18:14;0.88;;;0.60;;
18507;SDS011;9383;50.928;12.116;2022-10-01T15:20:53;0.60;;;0.60;;
18507;SDS011;9383;50.928;12.116;2022-10-01T15:23:32;2.70;;;0.80;;
18507;SDS011;9383;50.928;12.116;2022-10-01T15:26:05;3.75;;;1.08;;
18507;SDS011;9383;50.928;12.116;2022-10-01T15:28:38;0.90;;;0.90;;
18507;SDS011;9383;50.928;12.116;2022-10-01T15:31:04;0.90;;;0.90;;
18507;SDS011;9383;50.928;12.116;2022-10-01T15:33:33;0.50;;;0.50;;
18507;SDS011;9383;50.928;12.116;2022-10-01T15:36:05;0.40;;;0.40;;
18507;SDS011;9383;50.928;12.116;2022-10-01T15:38:40;0.50;;;0.50;;
18507;SDS011;9383;50.928;12.116;2022-10-01T15:41:15;1.02;;;0.60;;
18507;SDS011;9383;50.928;12.116;2022-10-01T15:43:49;1.50;;;0.55;;
18507;SDS011;9383;50.928;12.116;2022-10-01T15:49:32;0.70;;;0.70;;
18507;SDS011;9383;50.928;12.116;2022-10-01T15:51:54;5.10;;;3.72;;
18507;SDS011;9383;50.928;12.116;2022-10-01T15:54:44;1.90;;;1.00;;
18507;SDS011;9383;50.928;12.116;2022-10-01T15:57:18;0.70;;;0.50;;
18507;SDS011;9383;50.928;12.116;2022-10-01T15:59:47;0.88;;;0.88;;
18507;SDS011;9383;50.928;12.116;2022-10-01T16:02:18;1.05;;;0.95;;
18507;SDS011;9383;50.928;12.116;2022-10-01T16:04:50;1.38;;;0.63;;
18507;SDS011;9383;50.928;12.116;2022-10-01T16:07:21;1.20;;;1.10;;
18507;SDS011;9383;50.928;12.116;2022-10-01T16:09:55;1.02;;;0.90;;
18507;SDS011;9383;50.928;12.116;2022-10-01T16:12:27;1.00;;;1.00;;
18507;SDS011;9383;50.928;12.116;2022-10-01T16:17:27;1.05;;;0.93;;
18507;SDS011;9383;50.928;12.116;2022-10-01T16:22:41;1.10;;;1.00;;
18507;SDS011;9383;50.928;12.116;2022-10-01T16:27:50;1.35;;;1.25;;
18507;SDS011;9383;50.928;12.116;2022-10-01T16:30:42;1.20;;;1.08;;
18507;SDS011;9383;50.928;12.116;2022-10-01T16:33:15;1.30;;;1.20;;
18507;SDS011;9383;50.928;12.116;2022-10-01T16:35:41;1.73;;;1.20;;
18507;SDS011;9383;50.928;12.116;2022-10-01T16:38:09;1.40;;;1.30;;
18507;SDS011;9383;50.928;12.116;2022-10-01T16:40:38;0.90;;;0.90;;
18507;SDS011;9383;50.928;12.116;2022-10-01T16:43:08;1.00;;;1.00;;
18507;SDS011;9383;50.928;12.116;2022-10-01T16:45:43;1.50;;;1.40;;
18507;SDS011;9383;50.928;12.116;2022-10-01T16:48:19;2.30;;;2.10;;
18507;SDS011;9383;50.928;12.116;2022-10-01T16:50:49;2.40;;;2.20;;
18507;SDS011;9383;50.928;12.116;2022-10-01T16:53:18;3.42;;;2.72;;
18507;SDS011;9383;50.928;12.116;2022-10-01T16:55:45;1.80;;;1.70;;
18507;SDS011;9383;50.928;12.116;2022-10-01T16:58:12;3.97;;;1.83;;
18507;SDS011;9383;50.928;12.116;2022-10-01T17:00:41;2.05;;;1.52;;
18507;SDS011;9383;50.928;12.116;2022-10-01T17:03:15;2.63;;;1.90;;
18507;SDS011;9383;50.928;12.116;2022-10-01T17:05:45;1.98;;;1.77;;
18507;SDS011;9383;50.928;12.116;2022-10-01T17:08:12;1.88;;;1.77;;
18507;SDS011;9383;50.928;12.116;2022-10-01T17:10:47;2.70;;;2.28;;
18507;SDS011;9383;50.928;12.116;2022-10-01T17:13:21;2.47;;;2.25;;
18507;SDS011;9383;50.928;12.116;2022-10-01T17:15:49;2.30;;;2.10;;
18507;SDS011;9383;50.928;12.116;2022-10-01T17:18:16;1.85;;;1.75;;
18507;SDS011;9383;50.928;12.116;2022-10-01T17:20:43;6.15;;;4.65;;
18507;SDS011;9383;50.928;12.116;2022-10-01T17:23:11;4.22;;;2.83;;
18507;SDS011;9383;50.928;12.116;2022-10-01T17:25:41;4.78;;;3.00;;
18507;SDS011;9383;50.928;12.116;2022-10-01T17:28:12;2.80;;;1.83;;
18507;SDS011;9383;50.928;12.116;2022-10-01T17:30:42;17.60;;;7.30;;
18507;SDS011;9383;50.928;12.116;2022-10-01T17:33:11;4.85;;;3.10;;
18507;SDS011;9383;50.928;12.116;2022-10-01T17:35:40;2.20;;;1.95;;
18507;SDS011;9383;50.928;12.116;2022-10-01T17:38:09;2.80;;;2.20;;
18507;SDS011;9383;50.928;12.116;2022-10-01T17:40:40;3.20;;;2.20;;
18507;SDS011;9383;50.928;12.116;2022-10-01T17:43:09;4.03;;;2.15;;